Time;durP1;ratioP1;P1;durP2;ratioP2;P2;SDS_P1;SDS_P2;PMS_P1;PMS_P2;Temp;Humidity;BMP_temperature;BMP_pressure;BME280_temperature;BME280_humidity;BME280_pressure;Samples;Min_cycle;Max_cycle;Signal;HPM_P1;HPM_P2
2022/12/16 00:01:03;;;;;;;11.77;6.40;;;1.70;99.90;;;;;;5073588;28;20036;-61
2022/12/16 00:03:29;;;;;;;12.35;6.75;;;1.60;99.90;;;;;;5056066;28;20087;-61
2022/12/16 00:05:55;;;;;;;16.10;7.65;;;1.50;99.90;;;;;;5055940;28;20072;-61
2022/12/16 00:08:20;;;;;;;11.30;7.35;;;1.50;99.90;;;;;;5054783;28;20036;-61
2022/12/16 00:10:53;;;;;;;13.30;7.10;;;1.50;99.90;;;;;;5055690;28;20040;-61
2022/12/16 00:13:19;;;;;;;14.18;7.13;;;1.40;99.90;;;;;;5055424;28;20041;-61
2022/12/16 00:15:48;;;;;;;11.68;6.72;;;1.30;99.90;;;;;;5054941;28;20073;-61
2022/12/16 00:18:14;;;;;;;11.95;6.35;;;1.30;99.90;;;;;;5038930;28;20138;-61
2022/12/16 00:20:44;;;;;;;11.88;6.18;;;1.20;99.90;;;;;;5055652;28;20048;-61
2022/12/16 00:23:10;;;;;;;14.23;6.05;;;1.20;99.90;;;;;;5054780;28;20051;-61
2022/12/16 00:25:36;;;;;;;12.07;5.53;;;1.20;99.90;;;;;;5055497;28;20057;-60
2022/12/16 00:28:01;;;;;;;13.48;6.85;;;1.20;99.90;;;;;;5072647;28;20059;-61
2022/12/16 00:30:27;;;;;;;9.00;5.18;;;1.10;99.90;;;;;;5072396;28;20489;-61
2022/12/16 00:32:53;;;;;;;13.45;4.95;;;1.10;99.90;;;;;;5055597;28;20477;-61
2022/12/16 00:35:19;;;;;;;9.75;5.07;;;1.10;99.90;;;;;;5073055;28;20048;-61
2022/12/16 00:37:46;;;;;;;12.30;4.93;;;1.10;99.90;;;;;;5072433;28;20111;-61
2022/12/16 00:40:12;;;;;;;14.90;5.38;;;1.10;99.90;;;;;;5073168;28;20440;-61
2022/12/16 00:42:37;;;;;;;8.98;4.68;;;1.00;99.90;;;;;;5055459;28;20048;-60
2022/12/16 00:45:03;;;;;;;10.20;5.07;;;1.00;99.90;;;;;;5072043;28;20072;-60
2022/12/16 00:47:29;;;;;;;14.15;5.50;;;1.00;99.90;;;;;;5038835;28;20044;-60
2022/12/16 00:49:55;;;;;;;11.07;5.55;;;1.00;99.90;;;;;;5055228;28;20050;-60
2022/12/16 00:52:20;;;;;;;11.52;5.15;;;0.90;99.90;;;;;;5072112;28;20043;-60
2022/12/16 00:54:46;;;;;;;14.30;5.13;;;0.90;99.90;;;;;;5038225;28;20036;-61
2022/12/16 00:57:11;;;;;;;11.18;5.35;;;0.90;99.90;;;;;;5054126;28;20032;-60
2022/12/16 00:59:37;;;;;;;8.35;4.28;;;0.90;99.90;;;;;;5054930;28;20472;-61
2022/12/16 01:02:03;;;;;;;10.13;4.55;;;0.90;99.90;;;;;;5072493;28;20044;-61
2022/12/16 01:04:28;;;;;;;13.07;5.70;;;0.80;99.90;;;;;;5054067;28;20060;-60
2022/12/16 01:06:54;;;;;;;12.57;5.03;;;0.80;99.90;;;;;;5054614;28;20079;-60
2022/12/16 01:09:20;;;;;;;13.65;5.57;;;0.80;99.90;;;;;;5054588;28;20048;-60
2022/12/16 01:11:46;;;;;;;11.82;5.75;;;0.80;99.90;;;;;;5071722;28;20040;-60
2022/12/16 01:14:12;;;;;;;11.82;5.40;;;0.80;99.90;;;;;;5054556;28;20487;-60
2022/12/16 01:16:37;;;;;;;9.15;4.55;;;0.80;99.90;;;;;;5072627;28;20086;-60
2022/12/16 01:19:03;;;;;;;12.75;6.07;;;0.80;99.90;;;;;;5053625;28;20469;-60
2022/12/16 01:21:29;;;;;;;10.32;4.97;;;0.80;99.90;;;;;;5054570;28;20054;-60
2022/12/16 01:23:54;;;;;;;14.18;5.97;;;0.80;99.90;;;;;;5072099;28;20056;-60
2022/12/16 01:26:20;;;;;;;13.90;6.05;;;0.80;99.90;;;;;;5071329;28;20055;-60
2022/12/16 01:28:49;;;;;;;9.80;4.95;;;0.90;99.90;;;;;;5054450;28;20070;-60
2022/12/16 01:31:17;;;;;;;12.80;5.70;;;0.90;99.90;;;;;;5037673;28;20043;-60
2022/12/16 01:33:43;;;;;;;10.48;4.97;;;0.90;99.90;;;;;;5071159;28;20044;-60
2022/12/16 01:36:09;;;;;;;16.30;5.68;;;0.90;99.90;;;;;;5072108;28;20493;-60
2022/12/16 01:38:36;;;;;;;13.75;5.78;;;0.90;99.90;;;;;;5054032;28;20072;-60
2022/12/16 01:41:02;;;;;;;13.20;6.75;;;0.90;99.90;;;;;;5052795;28;20133;-60
2022/12/16 01:43:31;;;;;;;10.30;5.95;;;0.90;99.90;;;;;;5072097;28;20048;-60
2022/12/16 01:46:12;;;;;;;11.43;5.47;;;1.00;99.90;;;;;;5072130;28;20496;-60
2022/12/16 01:48:59;;;;;;;11.52;5.85;;;1.00;99.90;;;;;;5053630;28;20394;-60
2022/12/16 01:51:41;;;;;;;12.43;5.72;;;1.00;99.90;;;;;;5054242;28;20477;-60
2022/12/16 01:54:30;;;;;;;12.85;6.15;;;1.00;99.90;;;;;;5053050;28;20045;-60
2022/12/16 01:57:05;;;;;;;12.60;7.10;;;1.00;99.90;;;;;;5053563;28;20048;-60
2022/12/16 01:59:34;;;;;;;11.65;5.93;;;1.00;99.90;;;;;;5072366;28;20083;-60
2022/12/16 02:02:01;;;;;;;11.32;5.63;;;0.90;99.90;;;;;;5053135;28;20397;-60
2022/12/16 02:04:27;;;;;;;10.20;5.40;;;0.90;99.90;;;;;;5053824;28;20037;-60
2022/12/16 02:06:53;;;;;;;10.48;6.45;;;0.90;99.90;;;;;;5053708;28;20075;-60
2022/12/16 02:09:19;;;;;;;13.00;6.63;;;0.80;99.90;;;;;;5052684;28;20079;-60
2022/12/16 02:12:03;;;;;;;10.82;6.07;;;0.70;99.90;;;;;;5071860;28;20048;-60
2022/12/16 02:14:47;;;;;;;11.57;5.78;;;0.70;99.90;;;;;;5054277;28;20127;-60
2022/12/16 02:17:40;;;;;;;13.43;6.50;;;0.70;99.90;;;;;;5071679;28;20127;-60
2022/12/16 02:20:38;;;;;;;14.60;6.72;;;0.70;99.90;;;;;;5071596;28;20064;-60
2022/12/16 02:23:21;;;;;;;12.10;5.90;;;0.60;99.90;;;;;;5052650;28;20120;-60
2022/12/16 02:26:25;;;;;;;14.70;6.43;;;0.60;99.90;;;;;;5053499;28;20059;-60
2022/12/16 02:29:28;;;;;;;10.05;5.35;;;0.50;99.90;;;;;;4965673;28;20055;-60
2022/12/16 02:32:01;;;;;;;10.10;5.55;;;0.40;99.90;;;;;;5053524;28;20119;-60
2022/12/16 02:35:15;;;;;;;14.32;5.38;;;0.40;99.90;;;;;;5036794;28;20047;-60
2022/12/16 02:38:17;;;;;;;11.90;5.20;;;0.40;99.90;;;;;;4973122;28;20092;-60
2022/12/16 02:41:02;;;;;;;11.05;5.32;;;0.50;99.90;;;;;;4990245;28;20063;-60
2022/12/16 02:43:43;;;;;;;11.95;4.85;;;0.60;99.90;;;;;;5057712;28;20047;-60
2022/12/16 02:46:09;;;;;;;12.18;5.03;;;0.60;99.90;;;;;;5053218;28;20047;-60
2022/12/16 02:48:34;;;;;;;8.80;4.10;;;0.70;99.90;;;;;;5053673;28;20037;-60
2022/12/16 02:51:00;;;;;;;9.05;5.00;;;0.70;99.90;;;;;;5054225;28;20040;-60
2022/12/16 02:53:27;;;;;;;8.63;4.22;;;0.80;99.90;;;;;;5075058;28;20037;-60
2022/12/16 02:56:09;;;;;;;13.55;4.25;;;0.80;99.90;;;;;;5057108;28;20044;-60
2022/12/16 02:58:58;;;;;;;11.65;4.70;;;0.90;99.90;;;;;;5056453;28;20115;-60
2022/12/16 03:01:56;;;;;;;8.90;4.72;;;1.00;99.90;;;;;;5075056;28;20109;-60
2022/12/16 03:04:30;;;;;;;10.07;4.32;;;1.10;99.90;;;;;;5023131;28;20056;-60
2022/12/16 03:06:58;;;;;;;7.78;4.43;;;1.10;99.90;;;;;;5074592;28;20047;-61
2022/12/16 03:09:28;;;;;;;7.68;4.55;;;1.10;99.90;;;;;;5056679;28;20036;-61
2022/12/16 03:11:55;;;;;;;8.25;4.65;;;1.20;99.90;;;;;;5056083;28;20037;-61
2022/12/16 03:14:25;;;;;;;10.52;4.78;;;1.20;99.90;;;;;;5040155;28;20123;-60
2022/12/16 03:16:51;;;;;;;8.48;4.20;;;1.30;99.90;;;;;;5056638;28;20049;-60
2022/12/16 03:19:19;;;;;;;11.10;5.13;;;1.30;99.90;;;;;;5073660;28;20430;-60
2022/12/16 03:21:54;;;;;;;9.38;4.47;;;1.30;99.90;;;;;;5074472;28;20443;-61
2022/12/16 03:24:20;;;;;;;;;;;1.40;99.90;;;;;;5074898;28;20040;-61
2022/12/16 03:27:10;;;;;;;7.63;4.32;;;1.30;99.90;;;;;;5055712;28;20396;-60
2022/12/16 03:29:52;;;;;;;11.27;4.78;;;1.30;99.90;;;;;;5074617;28;20115;-60
2022/12/16 03:32:34;;;;;;;9.68;4.50;;;1.30;99.90;;;;;;5073549;28;20033;-60
2022/12/16 03:35:37;;;;;;;8.57;4.43;;;1.40;99.90;;;;;;5074601;28;20064;-60
2022/12/16 03:38:07;;;;;;;9.02;4.50;;;1.30;99.90;;;;;;5074284;28;20071;-60
2022/12/16 03:40:34;;;;;;;9.30;4.47;;;1.30;99.90;;;;;;5055956;28;20044;-60
2022/12/16 03:43:01;;;;;;;8.13;4.28;;;1.40;99.90;;;;;;5056222;28;20040;-60
2022/12/16 03:45:31;;;;;;;11.95;4.70;;;1.40;99.90;;;;;;5055952;28;20482;-60
2022/12/16 03:47:58;;;;;;;11.18;4.00;;;1.30;99.90;;;;;;5073341;28;20041;-60
2022/12/16 03:50:32;;;;;;;5.75;3.33;;;1.30;99.90;;;;;;5073896;28;20050;-60
2022/12/16 03:52:58;;;;;;;7.60;3.97;;;1.30;99.90;;;;;;5056067;28;20048;-60
2022/12/16 03:55:24;;;;;;;6.18;3.63;;;1.40;99.90;;;;;;5055163;28;20044;-60
2022/12/16 03:57:50;;;;;;;7.20;3.75;;;1.50;99.90;;;;;;5056188;28;20094;-60
2022/12/16 04:00:15;;;;;;;7.20;3.42;;;1.50;99.90;;;;;;5055407;28;20047;-60
2022/12/16 04:02:41;;;;;;;8.60;4.07;;;1.50;99.90;;;;;;5055287;28;20358;-61
2022/12/16 04:05:10;;;;;;;6.45;3.55;;;1.50;99.90;;;;;;5056031;28;20033;-61
2022/12/16 04:07:36;;;;;;;6.32;3.88;;;1.50;99.90;;;;;;5073507;28;20094;-60
2022/12/16 04:10:02;;;;;;;8.15;3.65;;;1.50;99.90;;;;;;5056115;28;20528;-60
2022/12/16 04:26:18;;;;;;;8.65;4.25;;;1.60;99.90;;;;;;5055262;28;20044;-60
2022/12/16 04:28:44;;;;;;;8.63;4.45;;;1.60;99.90;;;;;;5054859;28;20036;-60
2022/12/16 04:31:10;;;;;;;10.57;5.00;;;1.70;99.90;;;;;;5039182;28;20496;-60
